Time;durP1;ratioP1;P1;durP2;ratioP2;P2;SDS_P1;SDS_P2;PMS_P1;PMS_P2;Temp;Humidity;BMP_temperature;BMP_pressure;BME280_temperature;BME280_humidity;BME280_pressure;Samples;Min_cycle;Max_cycle;Signal;HPM_P1;HPM_P2
2021/05/16 00:01:25;;;;;;;9.63;7.30;;;;;;;15.80;73.38;99219.78;4978337;28;20254;-60
2021/05/16 00:03:51;;;;;;;9.32;6.97;;;;;;;15.69;73.97;99222.91;4985670;28;20022;-60
2021/05/16 00:06:16;;;;;;;7.45;6.75;;;;;;;15.68;74.16;99223.81;4986106;28;20037;-61
2021/05/16 00:08:44;;;;;;;8.82;7.45;;;;;;;15.68;74.38;99229.03;4986016;28;20034;-60
2021/05/16 00:11:10;;;;;;;8.18;7.10;;;;;;;15.77;72.98;99229.50;4985794;28;20033;-61
2021/05/16 00:13:35;;;;;;;10.35;7.45;;;;;;;15.81;73.04;99236.31;4984716;28;20027;-61
2021/05/16 00:16:02;;;;;;;9.98;7.22;;;;;;;15.77;73.40;99226.91;4985788;28;20039;-62
2021/05/16 00:18:29;;;;;;;8.10;7.15;;;;;;;15.81;73.40;99229.31;4984563;28;20042;-61
2021/05/16 00:20:55;;;;;;;10.75;7.45;;;;;;;15.79;73.46;99222.47;4985882;28;20053;-61
2021/05/16 00:23:21;;;;;;;7.82;6.72;;;;;;;15.77;73.70;99232.13;4985712;28;20023;-61
2021/05/16 00:25:47;;;;;;;9.00;7.43;;;;;;;15.75;73.60;99244.38;4985623;28;20061;-61
2021/05/16 00:28:13;;;;;;;9.35;8.32;;;;;;;15.72;74.09;99240.19;4985439;28;20030;-61
2021/05/16 00:30:38;;;;;;;11.75;8.23;;;;;;;15.64;74.16;99240.56;4985947;28;20034;-60
2021/05/16 00:33:07;;;;;;;10.68;8.82;;;;;;;15.64;74.94;99242.34;4979122;28;20039;-62
2021/05/16 00:35:33;;;;;;;12.13;9.30;;;;;;;15.59;74.62;99254.75;4985586;28;20258;-61
2021/05/16 00:38:02;;;;;;;12.45;9.10;;;;;;;15.27;74.37;99191.94;4985514;28;20027;-60
2021/05/16 00:40:28;;;;;;;10.75;8.15;;;;;;;15.58;74.47;99253.09;4977956;28;20035;-60
2021/05/16 00:42:54;;;;;;;11.13;8.38;;;;;;;15.54;74.42;99252.38;4985331;28;20034;-60
2021/05/16 00:45:22;;;;;;;16.63;9.55;;;;;;;15.25;74.58;99219.84;4985310;28;20101;-59
2021/05/16 00:48:03;;;;;;;13.15;9.30;;;;;;;15.10;75.84;99205.81;4985378;28;20030;-61
2021/05/16 00:50:33;;;;;;;11.80;9.40;;;;;;;15.37;75.63;99258.41;4985115;28;20352;-60
2021/05/16 00:52:58;;;;;;;14.50;10.10;;;;;;;15.43;75.01;99262.50;4985257;28;20038;-61
2021/05/16 00:55:24;;;;;;;16.60;9.82;;;;;;;15.47;75.14;99258.81;4984189;28;20204;-60
2021/05/16 00:57:50;;;;;;;14.27;10.65;;;;;;;15.36;75.63;99254.97;4985402;28;20251;-60
2021/05/16 01:00:22;;;;;;;9.90;8.40;;;;;;;15.42;74.89;99247.75;4985320;28;20367;-60
2021/05/16 01:02:47;;;;;;;13.70;10.27;;;;;;;15.36;75.56;99262.81;4975509;28;20059;-60
2021/05/16 01:05:15;;;;;;;13.15;9.65;;;;;;;15.12;75.27;99219.59;4984124;28;20035;-60
2021/05/16 01:07:41;;;;;;;13.18;9.70;;;;;;;15.46;74.81;99275.38;4984132;28;20031;-59
2021/05/16 01:10:10;;;;;;;10.90;9.32;;;;;;;15.29;76.00;99278.81;4985125;28;20027;-61
2021/05/16 01:12:45;;;;;;;13.10;9.80;;;;;;;15.34;76.17;99284.66;4985160;28;20026;-60
2021/05/16 01:15:16;;;;;;;10.07;8.93;;;;;;;15.35;75.43;99304.63;4984952;28;20101;-61
2021/05/16 01:17:42;;;;;;;13.90;10.77;;;;;;;15.35;76.12;99276.75;4983070;28;20101;-60
2021/05/16 01:20:11;;;;;;;12.00;10.02;;;;;;;15.30;75.66;99278.72;4984874;28;20098;-61
2021/05/16 01:22:37;;;;;;;12.63;10.90;;;;;;;15.30;76.10;99286.56;4984321;28;20046;-60
2021/05/16 01:25:05;;;;;;;14.90;10.52;;;;;;;15.19;76.33;99288.81;4984819;28;20061;-61
2021/05/16 01:27:30;;;;;;;11.10;9.75;;;;;;;15.21;76.63;99292.22;4985071;28;20034;-61
2021/05/16 01:29:56;;;;;;;14.85;10.10;;;;;;;15.15;76.56;99282.91;4984878;28;20069;-61
2021/05/16 01:32:23;;;;;;;12.90;10.70;;;;;;;15.15;76.48;99284.69;4984647;28;20035;-61
2021/05/16 01:34:50;;;;;;;14.90;10.50;;;;;;;15.24;76.63;99304.28;4984665;28;20027;-60
2021/05/16 01:37:17;;;;;;;14.55;10.63;;;;;;;15.21;76.65;99307.03;4984583;28;20026;-60
2021/05/16 01:39:48;;;;;;;11.88;10.15;;;;;;;15.27;76.14;99301.53;4984650;28;20026;-60
2021/05/16 01:42:18;;;;;;;12.02;10.07;;;;;;;15.15;76.34;99293.34;4984610;28;20043;-60
2021/05/16 01:44:44;;;;;;;11.63;10.48;;;;;;;15.26;76.05;99310.25;4984616;28;20034;-61
2021/05/16 01:47:10;;;;;;;13.93;10.52;;;;;;;15.16;76.90;99304.63;4984302;28;20033;-60
2021/05/16 01:49:48;;;;;;;13.13;10.35;;;;;;;15.11;77.05;99304.84;4984337;28;20102;-60
2021/05/16 01:52:14;;;;;;;14.95;10.88;;;;;;;15.12;77.18;99303.94;4984657;28;20192;-60
2021/05/16 01:54:40;;;;;;;13.77;10.00;;;;;;;15.18;76.64;99297.59;4984347;28;20270;-60
2021/05/16 01:57:07;;;;;;;11.30;10.15;;;;;;;15.24;75.54;99305.13;4984347;28;20034;-60
2021/05/16 01:59:35;;;;;;;11.75;9.60;;;;;;;15.19;76.82;99309.69;4984360;28;20035;-60
2021/05/16 02:02:02;;;;;;;16.02;9.80;;;;;;;15.17;77.13;99316.75;4984089;28;20030;-61
2021/05/16 02:04:30;;;;;;;11.88;10.40;;;;;;;15.15;77.70;99318.59;4983918;28;20197;-61
2021/05/16 02:06:57;;;;;;;11.95;10.52;;;;;;;15.08;77.68;99328.47;4984313;28;20034;-61
2021/05/16 02:09:24;;;;;;;15.25;11.02;;;;;;;15.11;77.54;99338.75;4984177;28;20026;-61
2021/05/16 02:11:50;;;;;;;13.02;11.43;;;;;;;15.15;77.54;99336.88;4983962;28;20227;-61
2021/05/16 02:14:26;;;;;;;13.25;10.38;;;;;;;15.21;77.70;99340.94;4984020;28;20038;-61
2021/05/16 02:16:53;;;;;;;12.52;10.23;;;;;;;15.26;77.09;99331.97;4983883;28;20047;-61
2021/05/16 02:19:19;;;;;;;13.75;10.05;;;;;;;15.35;76.51;99315.06;4983863;28;20094;-61
2021/05/16 02:21:45;;;;;;;14.43;10.43;;;;;;;15.54;75.96;99325.47;4983968;28;20068;-61
2021/05/16 02:24:12;;;;;;;12.57;9.38;;;;;;;15.52;76.35;99328.16;4983687;28;20037;-61
2021/05/16 02:26:38;;;;;;;10.98;9.63;;;;;;;15.63;76.19;99345.06;4983921;28;20027;-61
2021/05/16 02:29:05;;;;;;;11.32;9.07;;;;;;;15.57;75.75;99329.69;4983780;28;20031;-62
2021/05/16 02:31:31;;;;;;;12.23;10.20;;;;;;;15.78;75.64;99343.47;4983616;28;20041;-60
2021/05/16 02:33:57;;;;;;;11.00;9.98;;;;;;;16.24;74.24;99345.63;4982671;28;20085;-62
2021/05/16 02:36:22;;;;;;;11.52;8.93;;;;;;;16.46;73.46;99342.75;4983753;28;20223;-61
2021/05/16 02:38:48;;;;;;;9.40;8.43;;;;;;;16.59;73.08;99353.41;4983656;28;20315;-61
2021/05/16 02:41:14;;;;;;;11.48;9.30;;;;;;;16.58;72.49;99333.44;4983571;28;20042;-61
2021/05/16 02:43:40;;;;;;;12.45;9.40;;;;;;;16.49;72.98;99346.06;4983361;28;20038;-61
2021/05/16 02:46:06;;;;;;;10.73;9.00;;;;;;;16.85;72.05;99355.50;4983640;28;20223;-62
2021/05/16 02:48:32;;;;;;;9.90;8.90;;;;;;;17.05;70.90;99359.72;4983556;28;20041;-62
2021/05/16 02:50:57;;;;;;;14.05;9.25;;;;;;;17.32;70.19;99356.53;4983592;28;20211;-61
2021/05/16 02:53:23;;;;;;;9.90;8.80;;;;;;;17.12;70.93;99354.19;4983616;28;20027;-60
2021/05/16 02:55:49;;;;;;;11.07;9.13;;;;;;;17.22;71.03;99361.44;4983603;28;20034;-60
2021/05/16 02:58:15;;;;;;;8.25;7.45;;;;;;;17.21;70.85;99359.72;4983907;28;20031;-61
2021/05/16 03:00:41;;;;;;;13.18;9.43;;;;;;;17.08;71.02;99359.56;4998560;28;20030;-61
2021/05/16 03:03:07;;;;;;;13.40;9.93;;;;;;;17.10;71.33;99350.78;4983402;28;20030;-61
2021/05/16 03:05:33;;;;;;;11.05;8.40;;;;;;;17.19;70.80;99351.13;4983170;28;20118;-61
2021/05/16 03:07:59;;;;;;;8.30;7.50;;;;;;;17.27;70.36;99357.72;4983428;28;20068;-61
2021/05/16 03:10:24;;;;;;;9.40;7.85;;;;;;;17.20;70.92;99365.91;4983364;28;20031;-62
2021/05/16 03:12:50;;;;;;;8.93;7.57;;;;;;;17.11;70.64;99360.31;4983338;28;20258;-62
2021/05/16 03:15:17;;;;;;;9.18;8.20;;;;;;;17.18;70.71;99359.91;4983225;28;20231;-61
2021/05/16 03:17:43;;;;;;;10.18;8.27;;;;;;;17.04;71.31;99360.63;4983136;28;20357;-61
2021/05/16 03:20:10;;;;;;;8.10;7.15;;;;;;;17.11;71.01;99369.00;4998450;28;20027;-62
2021/05/16 03:22:35;;;;;;;9.52;8.30;;;;;;;17.11;70.96;99373.41;4983424;28;20023;-61
2021/05/16 03:25:01;;;;;;;9.10;7.88;;;;;;;17.28;70.75;99375.13;4983140;28;20077;-61
2021/05/16 03:27:28;;;;;;;12.38;8.00;;;;;;;17.30;70.71;99355.78;4983373;28;20097;-61
2021/05/16 03:29:54;;;;;;;8.70;7.85;;;;;;;17.40;70.70;99371.81;4983226;28;20035;-61
2021/05/16 03:32:19;;;;;;;8.30;7.50;;;;;;;17.47;69.97;99381.03;4983229;28;20086;-61
2021/05/16 03:34:45;;;;;;;8.68;7.60;;;;;;;17.40;70.05;99384.91;4982925;28;20251;-61
2021/05/16 03:37:11;;;;;;;7.60;6.80;;;;;;;17.57;69.22;99382.22;4983274;28;20027;-61
2021/05/16 03:39:38;;;;;;;8.68;6.82;;;;;;;17.67;69.18;99377.31;4982937;28;20027;-61
2021/05/16 03:42:04;;;;;;;8.50;7.18;;;;;;;17.77;68.49;99375.88;4983096;28;20039;-61
2021/05/16 03:44:30;;;;;;;8.88;7.97;;;;;;;17.54;69.01;99381.53;4984332;28;20358;-61
2021/05/16 03:46:55;;;;;;;9.32;7.00;;;;;;;17.56;69.56;99377.06;4986686;28;20031;-61
2021/05/16 03:49:21;;;;;;;8.93;7.05;;;;;;;17.75;68.33;99374.25;4986684;28;20034;-61
2021/05/16 03:51:47;;;;;;;7.60;6.90;;;;;;;17.55;69.38;99376.22;4986702;28;20031;-60
2021/05/16 03:54:15;;;;;;;8.38;7.45;;;;;;;17.59;68.86;99380.34;4986510;28;20034;-61
2021/05/16 03:56:41;;;;;;;7.50;6.80;;;;;;;17.68;68.96;99378.16;4986671;28;20027;-61
2021/05/16 03:59:07;;;;;;;8.15;7.00;;;;;;;17.66;69.05;99375.63;4986288;28;20219;-61
2021/05/16 04:01:33;;;;;;;11.18;7.28;;;;;;;17.51;69.18;99374.69;4986434;28;20027;-60
2021/05/16 04:03:59;;;;;;;8.77;6.88;;;;;;;17.63;69.15;99365.31;4985318;28;20030;-61
2021/05/16 04:06:25;;;;;;;8.68;6.88;;;;;;;17.87;68.64;99377.97;4986399;28;20074;-61
2021/05/16 04:08:51;;;;;;;7.07;6.30;;;;;;;17.92;68.45;99384.66;4986275;28;20027;-61
2021/05/16 04:11:16;;;;;;;9.13;6.30;;;;;;;17.86;67.84;99384.16;4986272;28;20086;-60
2021/05/16 04:13:42;;;;;;;9.27;6.25;;;;;;;17.94;67.68;99388.06;4986227;28;20026;-61
2021/05/16 04:16:08;;;;;;;6.50;5.88;;;;;;;18.00;67.84;99393.84;4985911;28;20329;-61
2021/05/16 04:18:34;;;;;;;7.60;6.22;;;;;;;18.05;67.75;99392.66;4986352;28;20069;-62
2021/05/16 04:21:01;;;;;;;8.57;6.85;;;;;;;18.17;67.17;99392.88;4986213;28;20030;-61
2021/05/16 04:23:27;;;;;;;6.97;6.28;;;;;;;17.98;67.19;99391.31;4985981;28;20091;-61
2021/05/16 04:25:54;;;;;;;8.52;6.53;;;;;;;18.27;66.87;99391.41;4985854;28;20031;-61
2021/05/16 04:28:19;;;;;;;9.07;6.03;;;;;;;18.47;66.35;99392.91;4985528;28;20197;-61
2021/05/16 04:30:45;;;;;;;7.78;6.70;;;;;;;18.63;66.70;99380.56;4966829;28;20031;-61
2021/05/16 04:33:11;;;;;;;6.35;5.75;;;;;;;18.61;65.37;99378.94;4966687;28;20038;-62
2021/05/16 04:35:37;;;;;;;6.30;5.20;;;;;;;18.82;65.10;99389.09;4982840;28;20308;-62
2021/05/16 04:38:03;;;;;;;8.50;6.22;;;;;;;18.68;64.72;99372.41;4985682;28;20097;-62
2021/05/16 04:40:28;;;;;;;7.20;5.28;;;;;;;19.06;64.95;99385.00;4985202;28;20047;-62
2021/05/16 04:42:55;;;;;;;5.97;5.38;;;;;;;19.25;64.52;99383.88;4985794;28;20053;-61
2021/05/16 04:45:21;;;;;;;7.22;5.90;;;;;;;19.80;62.94;99380.38;4985375;28;20057;-61
2021/05/16 04:47:47;;;;;;;6.78;5.20;;;;;;;20.50;60.09;99383.72;4985894;28;20030;-61
2021/05/16 04:50:15;;;;;;;5.20;4.70;;;;;;;21.32;57.85;99384.22;4985341;28;20027;-61
2021/05/16 04:52:41;;;;;;;5.03;4.63;;;;;;;21.98;57.06;99383.91;4985636;28;20038;-61
2021/05/16 04:55:07;;;;;;;8.10;4.95;;;;;;;22.34;53.51;99394.50;4985247;28;20030;-62
2021/05/16 04:57:34;;;;;;;8.23;4.80;;;;;;;22.95;53.21;99391.59;4984803;28;20043;-63
2021/05/16 05:00:01;;;;;;;7.07;4.38;;;;;;;23.38;50.68;99390.88;4985068;28;20187;-61
2021/05/16 05:02:27;;;;;;;6.70;4.25;;;;;;;23.35;50.87;99398.22;4977019;28;20029;-62
2021/05/16 05:04:54;;;;;;;5.03;4.53;;;;;;;23.30;50.40;99416.22;4975948;28;20304;-61
2021/05/16 05:07:20;;;;;;;4.90;3.75;;;;;;;23.34;48.56;99400.00;4985571;28;20039;-61
2021/05/16 05:09:46;;;;;;;6.68;4.28;;;;;;;22.67;50.48;99406.91;4965923;28;20031;-62
2021/05/16 05:12:12;;;;;;;4.32;3.92;;;;;;;23.28;50.34;99405.78;4965833;28;20027;-62
2021/05/16 05:14:37;;;;;;;7.85;4.85;;;;;;;23.22;50.33;99403.63;4969260;28;20252;-62
2021/05/16 05:17:04;;;;;;;5.47;4.28;;;;;;;23.22;49.56;99401.00;4974602;28;20046;-62
2021/05/16 05:19:30;;;;;;;4.15;3.67;;;;;;;23.19;50.25;99410.00;4976167;28;20031;-62
2021/05/16 05:21:55;;;;;;;5.50;3.50;;;;;;;23.68;48.94;99412.34;4983733;28;20201;-62
2021/05/16 05:24:23;;;;;;;4.57;4.03;;;;;;;24.24;47.08;99408.69;4984738;28;20227;-61
2021/05/16 05:26:48;;;;;;;6.93;4.10;;;;;;;24.70;46.99;99409.28;4984351;28;20039;-62
2021/05/16 05:29:14;;;;;;;4.70;3.47;;;;;;;23.99;46.92;99405.41;4973232;28;20041;-63
2021/05/16 05:31:40;;;;;;;3.85;3.50;;;;;;;23.95;47.28;99422.50;4973916;28;20019;-62
2021/05/16 05:34:06;;;;;;;4.13;3.50;;;;;;;24.16;46.00;99414.63;4976343;28;20346;-61
2021/05/16 05:36:31;;;;;;;3.83;3.50;;;;;;;23.96;46.70;99410.97;4984621;28;20082;-61
2021/05/16 05:38:58;;;;;;;5.97;3.90;;;;;;;24.50;46.00;99403.88;4984616;28;20037;-63
2021/05/16 05:41:24;;;;;;;6.97;3.60;;;;;;;24.66;46.57;99411.38;4984563;28;20026;-62
2021/05/16 05:43:49;;;;;;;5.00;3.10;;;;;;;24.90;45.44;99408.44;4984443;28;20096;-62
2021/05/16 05:46:15;;;;;;;3.58;3.25;;;;;;;24.83;46.09;99424.97;4984503;28;20042;-62
2021/05/16 05:48:41;;;;;;;3.20;2.90;;;;;;;23.93;45.41;99420.00;4984628;28;20037;-61
2021/05/16 05:51:06;;;;;;;4.03;3.00;;;;;;;24.13;46.03;99425.47;4984339;28;20224;-62
2021/05/16 05:53:34;;;;;;;2.90;2.70;;;;;;;23.20;47.25;99426.69;4978238;28;20287;-61
2021/05/16 05:55:59;;;;;;;4.57;2.85;;;;;;;23.12;47.11;99422.00;4981479;28;20074;-61
2021/05/16 05:58:29;;;;;;;3.47;3.10;;;;;;;23.50;48.11;99423.44;4982499;28;20031;-61
2021/05/16 06:00:55;;;;;;;4.32;2.83;;;;;;;23.54;47.29;99424.00;4982722;28;20023;-61
2021/05/16 06:03:21;;;;;;;3.63;3.20;;;;;;;23.24;47.40;99425.47;4968309;28;20034;-60
2021/05/16 06:05:47;;;;;;;4.85;3.10;;;;;;;23.22;48.15;99432.69;4978596;28;20038;-61
2021/05/16 06:08:12;;;;;;;4.43;3.17;;;;;;;22.78;48.02;99429.88;4982310;28;20045;-61
2021/05/16 06:10:38;;;;;;;3.60;2.95;;;;;;;22.70;48.26;99437.53;4982418;28;20037;-61
2021/05/16 06:13:04;;;;;;;4.70;3.03;;;;;;;22.18;47.86;99431.69;4984069;28;20350;-62
2021/05/16 06:15:29;;;;;;;5.13;2.78;;;;;;;22.40;49.58;99430.97;4983777;28;20077;-60
2021/05/16 06:17:55;;;;;;;7.55;3.65;;;;;;;22.29;48.54;99433.53;4983739;28;20180;-60
2021/05/16 06:20:21;;;;;;;4.05;3.05;;;;;;;22.52;48.30;99435.31;4983902;28;20038;-61
2021/05/16 06:22:48;;;;;;;6.13;3.50;;;;;;;21.98;47.82;99389.16;4983792;28;20046;-61
2021/05/16 06:25:15;;;;;;;4.50;3.10;;;;;;;22.30;47.26;99429.94;4983806;28;20049;-61
2021/05/16 06:27:41;;;;;;;3.25;2.92;;;;;;;22.31;47.84;99434.28;4983798;28;20023;-61
2021/05/16 06:30:08;;;;;;;4.63;3.30;;;;;;;22.35;47.71;99438.41;4983642;28;20033;-61
2021/05/16 06:32:34;;;;;;;3.28;3.08;;;;;;;22.48;47.48;99444.44;4983668;28;20050;-61
2021/05/16 06:34:59;;;;;;;5.25;2.58;;;;;;;22.47;47.67;99437.47;4983529;28;20026;-61
2021/05/16 06:37:25;;;;;;;3.20;2.90;;;;;;;22.75;47.10;99435.38;4983600;28;20338;-61
2021/05/16 06:39:52;;;;;;;3.97;3.03;;;;;;;22.78;45.88;99432.50;4983578;28;20240;-61
2021/05/16 06:42:17;;;;;;;2.85;2.65;;;;;;;22.90;45.84;99434.22;4983361;28;20031;-61
2021/05/16 06:44:43;;;;;;;4.45;3.10;;;;;;;23.39;45.83;99436.66;4983542;28;20211;-61
2021/05/16 06:47:09;;;;;;;3.97;2.50;;;;;;;23.21;46.38;99428.38;4983612;28;20208;-60
2021/05/16 06:49:36;;;;;;;2.97;2.78;;;;;;;23.14;46.58;99437.75;4983680;28;20026;-61
2021/05/16 06:52:03;;;;;;;3.33;2.90;;;;;;;22.73;45.42;99373.91;4983597;28;20097;-62
2021/05/16 06:54:28;;;;;;;3.83;2.90;;;;;;;23.12;45.91;99434.38;4983418;28;20042;-60
2021/05/16 06:56:54;;;;;;;4.07;2.67;;;;;;;23.16;46.29;99446.38;4983550;28;20220;-61
2021/05/16 06:59:20;;;;;;;3.38;2.95;;;;;;;22.96;46.51;99437.31;4983287;28;20046;-62
2021/05/16 07:01:47;;;;;;;4.97;3.10;;;;;;;23.37;43.72;99438.56;4981781;28;20081;-61
2021/05/16 07:04:13;;;;;;;3.33;2.88;;;;;;;23.27;44.37;99443.72;4965859;28;20308;-62
2021/05/16 07:06:39;;;;;;;4.03;2.90;;;;;;;23.67;44.78;99443.25;4983161;28;20370;-62
2021/05/16 07:09:05;;;;;;;4.95;2.83;;;;;;;23.86;44.71;99442.59;4982961;28;20053;-62
2021/05/16 07:11:31;;;;;;;3.20;3.00;;;;;;;24.27;43.58;99441.03;4983076;28;20379;-61
2021/05/16 07:13:57;;;;;;;3.08;2.78;;;;;;;23.88;44.78;99443.31;4983290;28;20030;-61
2021/05/16 07:16:23;;;;;;;3.03;2.65;;;;;;;23.81;43.48;99420.94;4982785;28;20076;-62
2021/05/16 07:18:49;;;;;;;3.28;2.80;;;;;;;23.86;43.71;99447.06;4983488;28;20193;-61
2021/05/16 07:21:14;;;;;;;2.70;2.50;;;;;;;24.12;44.56;99444.94;4987044;28;20023;-63
2021/05/16 07:23:40;;;;;;;4.53;2.60;;;;;;;24.02;44.58;99441.38;4986967;28;20034;-63
2021/05/16 07:26:07;;;;;;;3.38;2.55;;;;;;;23.95;44.65;99438.38;4986933;28;20090;-63
2021/05/16 07:28:32;;;;;;;3.45;2.85;;;;;;;23.69;43.79;99435.19;4986874;28;20027;-61
2021/05/16 07:30:58;;;;;;;6.53;2.92;;;;;;;23.25;44.02;99443.03;4986981;28;20023;-61
2021/05/16 07:33:24;;;;;;;4.32;2.65;;;;;;;23.53;45.18;99436.41;4985595;28;20303;-62
2021/05/16 07:35:50;;;;;;;41.75;34.75;;;;;;;23.30;46.46;99440.00;4986622;28;20031;-61
2021/05/16 07:38:15;;;;;;;3.75;3.45;;;;;;;23.40;44.32;99443.59;4986704;28;20062;-61
2021/05/16 07:40:41;;;;;;;2.72;2.53;;;;;;;23.38;45.74;99448.19;4986456;28;20035;-61
2021/05/16 07:43:08;;;;;;;3.75;3.10;;;;;;;23.55;45.47;99441.56;4986240;28;20101;-63
2021/05/16 07:45:34;;;;;;;3.55;2.90;;;;;;;23.63;45.21;99439.16;4986508;28;20031;-62
2021/05/16 07:48:00;;;;;;;4.28;2.95;;;;;;;23.56;45.61;99444.09;4986627;28;20027;-61
2021/05/16 07:50:26;;;;;;;4.82;2.78;;;;;;;23.32;45.21;99448.69;4986614;28;20027;-61
2021/05/16 07:52:51;;;;;;;3.88;3.45;;;;;;;23.22;45.04;99457.31;5001570;28;20042;-62
2021/05/16 07:55:17;;;;;;;4.68;3.08;;;;;;;23.27;45.93;99449.88;4986398;28;20027;-62
2021/05/16 07:57:43;;;;;;;2.83;2.58;;;;;;;23.07;44.90;99461.09;4986274;28;20227;-62
2021/05/16 08:00:12;;;;;;;5.65;2.95;;;;;;;23.31;45.91;99457.56;4986723;28;20120;-63
2021/05/16 08:02:42;;;;;;;3.88;2.50;;;;;;;23.16;43.36;99449.00;4986329;28;20098;-63
2021/05/16 08:05:10;;;;;;;3.38;3.00;;;;;;;23.03;44.13;99459.66;4986370;28;20223;-67
2021/05/16 08:07:35;;;;;;;5.68;3.05;;;;;;;23.16;45.25;99464.88;4985173;28;20235;-63
2021/05/16 08:10:01;;;;;;;5.28;4.03;;;;;;;23.11;44.78;99462.59;4974534;28;20027;-61
2021/05/16 08:12:27;;;;;;;5.45;2.95;;;;;;;23.01;44.90;99466.88;4971918;28;20027;-63
2021/05/16 08:14:53;;;;;;;2.88;2.67;;;;;;;23.26;45.00;99463.22;4979465;28;20381;-61
2021/05/16 08:17:18;;;;;;;4.05;2.92;;;;;;;23.39;44.09;99468.38;4985384;28;20061;-62
2021/05/16 08:19:44;;;;;;;3.20;2.67;;;;;;;23.23;45.48;99471.34;4980436;28;20031;-62
2021/05/16 08:22:10;;;;;;;3.42;2.85;;;;;;;23.35;45.39;99473.06;4985947;28;20033;-61
2021/05/16 08:24:37;;;;;;;4.70;2.90;;;;;;;23.40;44.81;99459.47;4985592;28;20060;-62
2021/05/16 08:27:07;;;;;;;3.88;2.50;;;;;;;23.20;44.91;99427.53;4985907;28;20045;-61
2021/05/16 08:29:36;;;;;;;3.40;3.10;;;;;;;23.43;46.59;99460.09;4985917;28;20041;-62
2021/05/16 08:32:06;;;;;;;3.47;3.13;;;;;;;23.54;44.78;99472.44;4983510;28;20098;-62
2021/05/16 08:34:32;;;;;;;3.42;3.10;;;;;;;23.68;43.55;99465.22;4985611;28;20045;-62
2021/05/16 08:36:58;;;;;;;5.95;2.90;;;;;;;23.48;44.19;99472.94;4985600;28;20031;-63
2021/05/16 08:39:24;;;;;;;4.43;3.00;;;;;;;23.43;45.14;99467.19;4968364;28;20335;-62
2021/05/16 08:41:50;;;;;;;3.25;2.92;;;;;;;23.54;44.73;99469.78;4985849;28;20071;-63
2021/05/16 08:44:18;;;;;;;5.80;3.10;;;;;;;23.53;45.37;99468.13;4985534;28;20270;-64
2021/05/16 08:46:44;;;;;;;3.00;2.80;;;;;;;23.30;44.30;99467.31;4981290;28;20023;-62
2021/05/16 08:49:10;;;;;;;3.70;3.05;;;;;;;23.39;45.18;99463.91;4966136;28;20023;-61
2021/05/16 08:51:37;;;;;;;3.40;3.03;;;;;;;23.35;47.09;99475.69;4965030;29;20137;-62
2021/05/16 08:54:03;;;;;;;3.67;3.30;;;;;;;23.54;45.80;99467.16;4965906;28;20035;-62
2021/05/16 08:56:29;;;;;;;5.15;3.20;;;;;;;23.76;45.31;99474.22;4988610;28;20261;-61
2021/05/16 08:58:54;;;;;;;5.75;3.22;;;;;;;23.61;43.86;99473.66;4965862;28;20023;-62
2021/05/16 09:01:22;;;;;;;5.25;3.30;;;;;;;23.16;44.57;99434.03;4967542;28;20023;-62
2021/05/16 09:03:48;;;;;;;3.63;3.30;;;;;;;23.32;45.00;99468.00;4972277;28;20043;-62
2021/05/16 09:06:15;;;;;;;4.75;3.40;;;;;;;23.41;45.74;99477.84;4976722;28;20323;-62
2021/05/16 09:08:41;;;;;;;3.83;3.53;;;;;;;23.56;46.51;99473.16;4974146;28;20050;-62
2021/05/16 09:11:07;;;;;;;6.57;3.47;;;;;;;23.48;46.36;99467.63;4973369;28;20315;-63
2021/05/16 09:13:35;;;;;;;3.67;3.25;;;;;;;23.25;45.63;99475.56;4974771;28;20062;-63
2021/05/16 09:16:10;;;;;;;4.50;3.25;;;;;;;23.45;47.17;99475.81;4980140;28;20214;-62
2021/05/16 09:18:46;;;;;;;5.15;3.53;;;;;;;23.63;45.95;99491.19;4974620;28;20031;-62
2021/05/16 09:21:22;;;;;;;3.42;3.13;;;;;;;23.04;45.74;99475.38;4972897;28;20058;-60
2021/05/16 09:24:07;;;;;;;4.75;3.30;;;;;;;23.08;46.04;99457.50;4974043;28;20031;-62
2021/05/16 09:26:52;;;;;;;7.10;3.35;;;;;;;23.57;46.15;99474.84;4976195;28;20037;-62
2021/05/16 09:29:23;;;;;;;4.60;3.35;;;;;;;23.89;45.44;99473.28;4975828;28;20692;-61
2021/05/16 09:31:50;;;;;;;6.30;3.47;;;;;;;23.83;43.00;99458.72;4989699;28;20043;-61
2021/05/16 09:34:16;;;;;;;2.63;2.42;;;;;;;24.04;43.06;99466.75;4973633;28;20035;-62
2021/05/16 09:36:45;;;;;;;6.28;3.08;;;;;;;23.87;42.07;99473.41;4973146;28;20035;-64
2021/05/16 09:39:30;;;;;;;3.00;2.58;;;;;;;23.70;43.35;99458.84;4974867;28;20041;-61
2021/05/16 09:42:14;;;;;;;3.10;2.53;;;;;;;23.78;43.66;99472.28;4974674;28;20030;-62
2021/05/16 09:44:46;;;;;;;5.72;4.25;;;;;;;23.79;45.84;99459.91;4975434;28;20031;-59
2021/05/16 09:47:16;;;;;;;3.90;2.70;;;;;;;23.45;42.98;99465.25;4973832;28;20035;-61
2021/05/16 09:49:53;;;;;;;3.40;2.75;;;;;;;23.09;43.76;99416.94;4974491;28;20220;-61
2021/05/16 09:52:20;;;;;;;3.45;2.50;;;;;;;23.09;44.08;99475.06;4974869;28;20057;-61
2021/05/16 09:55:03;;;;;;;3.33;2.65;;;;;;;23.28;44.09;99466.56;4973195;28;20042;-62
2021/05/16 09:57:31;;;;;;;3.65;2.70;;;;;;;22.87;43.22;99418.59;4972483;28;20085;-60
2021/05/16 09:59:58;;;;;;;6.88;2.90;;;;;;;23.17;43.76;99470.03;4968007;28;20038;-59
2021/05/16 10:02:27;;;;;;;7.53;3.45;;;;;;;23.42;45.26;99465.50;4967552;28;20253;-61
2021/05/16 10:04:55;;;;;;;3.65;2.60;;;;;;;23.35;43.24;99422.00;4968476;28;20031;-62
2021/05/16 10:07:22;;;;;;;3.38;3.08;;;;;;;23.67;44.21;99453.81;4975272;28;20027;-61
2021/05/16 10:09:48;;;;;;;137.60;99.22;;;;;;;23.77;44.85;99460.03;4975950;28;20058;-63
2021/05/16 10:12:16;;;;;;;5.57;4.13;;;;;;;24.08;44.22;99462.03;4972381;28;20230;-63
2021/05/16 10:14:46;;;;;;;5.78;4.32;;;;;;;23.93;44.47;99413.88;5000673;28;20396;-61
2021/05/16 10:17:12;;;;;;;2.95;2.10;;;;;;;23.99;41.19;99470.72;4983040;28;20122;-62
2021/05/16 10:19:41;;;;;;;2.78;2.10;;;;;;;23.66;40.60;99419.53;4983394;28;20094;-62
2021/05/16 10:22:10;;;;;;;6.15;2.45;;;;;;;24.05;41.61;99473.69;4983107;28;20042;-64
2021/05/16 10:24:38;;;;;;;2.35;2.13;;;;;;;24.15;41.68;99465.03;4972590;28;20041;-61
2021/05/16 10:27:26;;;;;;;4.05;2.42;;;;;;;24.18;42.48;99467.41;4972011;28;20027;-61
2021/05/16 10:30:01;;;;;;;2.40;2.20;;;;;;;24.05;40.99;99435.84;4967005;28;20040;-63
2021/05/16 10:32:36;;;;;;;3.90;2.40;;;;;;;23.90;41.53;99414.97;4974441;28;20026;-64
2021/05/16 10:35:06;;;;;;;5.00;2.30;;;;;;;24.12;40.92;99416.66;4972351;28;20027;-63
2021/05/16 10:37:34;;;;;;;4.00;2.20;;;;;;;24.39;40.85;99472.75;4972878;28;20027;-61
2021/05/16 10:40:00;;;;;;;3.72;2.50;;;;;;;24.42;40.38;99459.25;4966180;28;20365;-62
2021/05/16 10:42:40;;;;;;;2.88;2.25;;;;;;;24.41;40.46;99457.56;4974241;28;20031;-65
2021/05/16 10:45:06;;;;;;;2.95;2.33;;;;;;;24.25;40.37;99461.47;4972137;28;20094;-62
2021/05/16 10:47:41;;;;;;;4.00;2.63;;;;;;;24.21;41.12;99454.75;4973340;28;20046;-62
2021/05/16 10:50:13;;;;;;;2.03;1.92;;;;;;;24.14;40.52;99443.00;4972686;28;20041;-62
2021/05/16 10:52:39;;;;;;;2.60;2.38;;;;;;;24.21;40.84;99438.03;4971912;28;20022;-61
2021/05/16 10:55:26;;;;;;;2.38;2.17;;;;;;;24.30;40.82;99446.06;4970314;28;20027;-61
2021/05/16 10:57:51;;;;;;;3.60;2.17;;;;;;;24.20;39.67;99447.81;4972735;28;20023;-62
2021/05/16 11:00:20;;;;;;;2.95;2.38;;;;;;;24.18;40.11;99451.53;4973309;28;20270;-62
2021/05/16 11:03:08;;;;;;;2.17;1.92;;;;;;;24.27;40.39;99448.13;4972319;28;20055;-61
2021/05/16 11:08:20;;;;;;;3.15;2.20;;;;;;;24.25;39.34;99435.00;4968623;28;20047;-63
2021/05/16 11:10:54;;;;;;;2.83;2.22;;;;;;;24.29;39.89;99440.91;4964560;28;20038;-62
2021/05/16 11:13:27;;;;;;;2.30;2.10;;;;;;;23.78;40.12;99406.16;4976240;28;20034;-66
2021/05/16 11:15:53;;;;;;;2.92;2.10;;;;;;;23.74;40.02;99401.25;4967817;28;20074;-63
2021/05/16 11:18:22;;;;;;;2.33;2.10;;;;;;;24.05;40.63;99449.06;4972750;28;20049;-61
2021/05/16 11:20:53;;;;;;;3.28;2.30;;;;;;;24.03;41.51;99457.13;4982746;28;20030;-63
2021/05/16 11:23:30;;;;;;;6.43;2.30;;;;;;;24.04;41.74;99450.88;4971609;28;20031;-63
2021/05/16 11:25:57;;;;;;;2.30;2.10;;;;;;;23.90;40.25;99446.69;4973361;28;20278;-64
2021/05/16 11:28:24;;;;;;;3.92;2.10;;;;;;;23.89;40.57;99450.31;4973546;28;20042;-66
2021/05/16 11:30:51;;;;;;;3.10;2.42;;;;;;;24.10;41.60;99439.78;4970680;28;20094;-63
2021/05/16 11:33:29;;;;;;;3.33;2.28;;;;;;;24.11;40.84;99444.13;4980774;28;20128;-62
2021/05/16 11:35:56;;;;;;;3.80;2.10;;;;;;;24.19;41.50;99438.19;4981631;28;20034;-62